sensor_id;sensor_type;location;lat;lon;timestamp;P1;durP1;ratioP1;P2;durP2;ratioP2
23444;SDS011;11895;48.738;9.320;2023-04-03T00:01:20;4.53;;;2.78;;
23444;SDS011;11895;48.738;9.320;2023-04-03T00:03:48;4.50;;;2.50;;
23444;SDS011;11895;48.738;9.320;2023-04-03T00:06:16;5.03;;;2.55;;
23444;SDS011;11895;48.738;9.320;2023-04-03T00:08:44;4.63;;;2.80;;
23444;SDS011;11895;48.738;9.320;2023-04-03T00:11:11;5.65;;;3.10;;
23444;SDS011;11895;48.738;9.320;2023-04-03T00:13:39;4.40;;;2.40;;
23444;SDS011;11895;48.738;9.320;2023-04-03T00:16:07;5.60;;;2.90;;
23444;SDS011;11895;48.738;9.320;2023-04-03T00:21:04;4.95;;;3.15;;
23444;SDS011;11895;48.738;9.320;2023-04-03T00:23:33;4.55;;;3.03;;
23444;SDS011;11895;48.738;9.320;2023-04-03T00:26:01;4.43;;;2.97;;
23444;SDS011;11895;48.738;9.320;2023-04-03T00:28:29;5.18;;;2.97;;
23444;SDS011;11895;48.738;9.320;2023-04-03T00:30:56;8.48;;;3.13;;
23444;SDS011;11895;48.738;9.320;2023-04-03T00:33:25;5.55;;;3.00;;
23444;SDS011;11895;48.738;9.320;2023-04-03T00:35:52;4.82;;;2.88;;
23444;SDS011;11895;48.738;9.320;2023-04-03T00:38:20;5.70;;;3.00;;
23444;SDS011;11895;48.738;9.320;2023-04-03T00:40:48;6.13;;;2.60;;
23444;SDS011;11895;48.738;9.320;2023-04-03T00:43:17;5.30;;;3.17;;
23444;SDS011;11895;48.738;9.320;2023-04-03T00:45:53;5.25;;;3.00;;
23444;SDS011;11895;48.738;9.320;2023-04-03T00:48:34;6.63;;;2.97;;
23444;SDS011;11895;48.738;9.320;2023-04-03T00:51:20;3.47;;;2.70;;
23444;SDS011;11895;48.738;9.320;2023-04-03T00:54:01;4.55;;;2.75;;
23444;SDS011;11895;48.738;9.320;2023-04-03T00:56:31;5.40;;;2.70;;
23444;SDS011;11895;48.738;9.320;2023-04-03T00:59:19;6.13;;;2.58;;
23444;SDS011;11895;48.738;9.320;2023-04-03T01:01:54;5.82;;;2.10;;
23444;SDS011;11895;48.738;9.320;2023-04-03T01:07:08;5.28;;;2.80;;
23444;SDS011;11895;48.738;9.320;2023-04-03T01:09:38;6.90;;;3.55;;
23444;SDS011;11895;48.738;9.320;2023-04-03T01:12:17;5.47;;;2.50;;
23444;SDS011;11895;48.738;9.320;2023-04-03T01:14:53;4.97;;;2.70;;
23444;SDS011;11895;48.738;9.320;2023-04-03T01:17:42;5.20;;;2.70;;
23444;SDS011;11895;48.738;9.320;2023-04-03T01:20:21;3.92;;;2.80;;
23444;SDS011;11895;48.738;9.320;2023-04-03T01:25:47;4.30;;;2.75;;
23444;SDS011;11895;48.738;9.320;2023-04-03T01:28:20;5.88;;;2.92;;
23444;SDS011;11895;48.738;9.320;2023-04-03T01:30:56;5.20;;;2.50;;
23444;SDS011;11895;48.738;9.320;2023-04-03T01:33:55;4.32;;;2.78;;
23444;SDS011;11895;48.738;9.320;2023-04-03T01:36:25;5.75;;;2.80;;
23444;SDS011;11895;48.738;9.320;2023-04-03T01:38:56;4.38;;;2.83;;
23444;SDS011;11895;48.738;9.320;2023-04-03T01:41:27;4.88;;;2.63;;
23444;SDS011;11895;48.738;9.320;2023-04-03T01:44:03;4.38;;;2.55;;
23444;SDS011;11895;48.738;9.320;2023-04-03T01:46:32;4.13;;;2.55;;
23444;SDS011;11895;48.738;9.320;2023-04-03T01:49:00;4.20;;;2.60;;
23444;SDS011;11895;48.738;9.320;2023-04-03T01:51:28;4.45;;;2.80;;
23444;SDS011;11895;48.738;9.320;2023-04-03T01:53:56;3.90;;;2.58;;
23444;SDS011;11895;48.738;9.320;2023-04-03T01:56:24;5.00;;;2.83;;
23444;SDS011;11895;48.738;9.320;2023-04-03T01:58:52;7.43;;;3.03;;
23444;SDS011;11895;48.738;9.320;2023-04-03T02:01:20;5.68;;;3.10;;
23444;SDS011;11895;48.738;9.320;2023-04-03T02:03:47;6.70;;;2.58;;
23444;SDS011;11895;48.738;9.320;2023-04-03T02:06:15;6.13;;;2.80;;
23444;SDS011;11895;48.738;9.320;2023-04-03T02:08:42;4.63;;;2.80;;
23444;SDS011;11895;48.738;9.320;2023-04-03T02:11:09;3.45;;;2.50;;
23444;SDS011;11895;48.738;9.320;2023-04-03T02:13:36;4.68;;;2.78;;
23444;SDS011;11895;48.738;9.320;2023-04-03T02:16:08;3.47;;;2.50;;
23444;SDS011;11895;48.738;9.320;2023-04-03T02:18:37;3.90;;;2.45;;
23444;SDS011;11895;48.738;9.320;2023-04-03T02:21:05;4.32;;;2.53;;
23444;SDS011;11895;48.738;9.320;2023-04-03T02:23:32;3.40;;;2.70;;
23444;SDS011;11895;48.738;9.320;2023-04-03T02:26:07;4.00;;;2.85;;
23444;SDS011;11895;48.738;9.320;2023-04-03T02:28:38;4.72;;;3.22;;
23444;SDS011;11895;48.738;9.320;2023-04-03T02:31:07;4.10;;;2.75;;
23444;SDS011;11895;48.738;9.320;2023-04-03T02:33:39;3.72;;;2.50;;
23444;SDS011;11895;48.738;9.320;2023-04-03T02:36:09;6.13;;;2.90;;
23444;SDS011;11895;48.738;9.320;2023-04-03T02:38:40;7.05;;;3.10;;
23444;SDS011;11895;48.738;9.320;2023-04-03T02:41:09;4.63;;;2.88;;
23444;SDS011;11895;48.738;9.320;2023-04-03T02:43:38;5.85;;;2.38;;
23444;SDS011;11895;48.738;9.320;2023-04-03T02:46:07;6.00;;;2.65;;
23444;SDS011;11895;48.738;9.320;2023-04-03T02:48:34;4.20;;;2.35;;
23444;SDS011;11895;48.738;9.320;2023-04-03T02:51:02;7.50;;;2.65;;
23444;SDS011;11895;48.738;9.320;2023-04-03T02:53:30;4.47;;;2.60;;
23444;SDS011;11895;48.738;9.320;2023-04-03T02:56:02;4.15;;;2.35;;
23444;SDS011;11895;48.738;9.320;2023-04-03T02:58:30;3.28;;;2.55;;
23444;SDS011;11895;48.738;9.320;2023-04-03T03:00:58;5.43;;;2.72;;
23444;SDS011;11895;48.738;9.320;2023-04-03T03:03:27;8.77;;;2.60;;
23444;SDS011;11895;48.738;9.320;2023-04-03T03:06:04;7.22;;;2.30;;
23444;SDS011;11895;48.738;9.320;2023-04-03T03:08:33;6.45;;;2.90;;
23444;SDS011;11895;48.738;9.320;2023-04-03T03:11:03;4.55;;;2.47;;
23444;SDS011;11895;48.738;9.320;2023-04-03T03:13:32;3.70;;;2.38;;
23444;SDS011;11895;48.738;9.320;2023-04-03T03:16:00;4.57;;;2.50;;
23444;SDS011;11895;48.738;9.320;2023-04-03T03:18:29;5.85;;;2.60;;
23444;SDS011;11895;48.738;9.320;2023-04-03T03:20:57;3.90;;;2.55;;
23444;SDS011;11895;48.738;9.320;2023-04-03T03:23:28;6.40;;;2.65;;
23444;SDS011;11895;48.738;9.320;2023-04-03T03:25:59;4.90;;;2.58;;
23444;SDS011;11895;48.738;9.320;2023-04-03T03:28:33;3.65;;;2.80;;
23444;SDS011;11895;48.738;9.320;2023-04-03T03:31:04;4.95;;;2.42;;
23444;SDS011;11895;48.738;9.320;2023-04-03T03:33:36;4.30;;;2.17;;
23444;SDS011;11895;48.738;9.320;2023-04-03T03:36:03;3.42;;;2.25;;
23444;SDS011;11895;48.738;9.320;2023-04-03T03:38:31;4.70;;;2.33;;
23444;SDS011;11895;48.738;9.320;2023-04-03T03:41:00;3.17;;;2.35;;
23444;SDS011;11895;48.738;9.320;2023-04-03T03:43:31;4.50;;;2.53;;
23444;SDS011;11895;48.738;9.320;2023-04-03T03:45:58;4.47;;;2.33;;
23444;SDS011;11895;48.738;9.320;2023-04-03T03:48:27;5.60;;;2.33;;
23444;SDS011;11895;48.738;9.320;2023-04-03T03:50:55;4.18;;;2.10;;
23444;SDS011;11895;48.738;9.320;2023-04-03T03:53:27;4.97;;;2.40;;
23444;SDS011;11895;48.738;9.320;2023-04-03T03:55:58;6.57;;;2.60;;
23444;SDS011;11895;48.738;9.320;2023-04-03T03:58:28;3.85;;;2.17;;
23444;SDS011;11895;48.738;9.320;2023-04-03T04:00:56;3.30;;;2.50;;
23444;SDS011;11895;48.738;9.320;2023-04-03T04:03:28;5.95;;;2.75;;
23444;SDS011;11895;48.738;9.320;2023-04-03T04:05:55;6.40;;;2.40;;
23444;SDS011;11895;48.738;9.320;2023-04-03T04:08:23;3.22;;;2.10;;
23444;SDS011;11895;48.738;9.320;2023-04-03T04:10:51;6.82;;;2.80;;
23444;SDS011;11895;48.738;9.320;2023-04-03T04:13:39;3.30;;;2.15;;
23444;SDS011;11895;48.738;9.320;2023-04-03T04:16:08;4.22;;;2.42;;
23444;SDS011;11895;48.738;9.320;2023-04-03T04:18:37;4.57;;;2.30;;
23444;SDS011;11895;48.738;9.320;2023-04-03T04:21:04;4.55;;;2.40;;
23444;SDS011;11895;48.738;9.320;2023-04-03T04:23:31;3.42;;;2.15;;
23444;SDS011;11895;48.738;9.320;2023-04-03T04:26:00;5.40;;;2.43;;
23444;SDS011;11895;48.738;9.320;2023-04-03T04:28:30;5.68;;;2.55;;
23444;SDS011;11895;48.738;9.320;2023-04-03T04:31:01;4.63;;;2.28;;
23444;SDS011;11895;48.738;9.320;2023-04-03T04:33:28;6.63;;;2.45;;
23444;SDS011;11895;48.738;9.320;2023-04-03T04:35:58;5.47;;;2.60;;
23444;SDS011;11895;48.738;9.320;2023-04-03T04:38:26;3.65;;;2.33;;
23444;SDS011;11895;48.738;9.320;2023-04-03T04:40:53;3.80;;;2.05;;
23444;SDS011;11895;48.738;9.320;2023-04-03T04:43:21;5.60;;;2.75;;
23444;SDS011;11895;48.738;9.320;2023-04-03T04:46:02;3.53;;;2.25;;
23444;SDS011;11895;48.738;9.320;2023-04-03T04:48:44;5.05;;;2.35;;
23444;SDS011;11895;48.738;9.320;2023-04-03T04:51:12;4.22;;;2.38;;
23444;SDS011;11895;48.738;9.320;2023-04-03T04:53:41;5.72;;;2.63;;
23444;SDS011;11895;48.738;9.320;2023-04-03T04:56:11;5.93;;;3.00;;
23444;SDS011;11895;48.738;9.320;2023-04-03T04:58:39;7.88;;;2.85;;
23444;SDS011;11895;48.738;9.320;2023-04-03T05:01:09;3.83;;;2.28;;
23444;SDS011;11895;48.738;9.320;2023-04-03T05:03:53;3.15;;;2.42;;
23444;SDS011;11895;48.738;9.320;2023-04-03T05:08:49;4.47;;;2.45;;
23444;SDS011;11895;48.738;9.320;2023-04-03T05:11:17;4.63;;;2.53;;
23444;SDS011;11895;48.738;9.320;2023-04-03T05:13:48;3.10;;;2.03;;
23444;SDS011;11895;48.738;9.320;2023-04-03T05:16:16;4.80;;;2.50;;
23444;SDS011;11895;48.738;9.320;2023-04-03T05:18:44;6.25;;;2.25;;
23444;SDS011;11895;48.738;9.320;2023-04-03T05:21:16;3.90;;;2.63;;
23444;SDS011;11895;48.738;9.320;2023-04-03T05:23:46;6.25;;;2.58;;
23444;SDS011;11895;48.738;9.320;2023-04-03T05:26:19;6.22;;;2.72;;
23444;SDS011;11895;48.738;9.320;2023-04-03T05:28:49;3.92;;;2.25;;
23444;SDS011;11895;48.738;9.320;2023-04-03T05:31:17;4.43;;;2.80;;
23444;SDS011;11895;48.738;9.320;2023-04-03T05:33:45;3.93;;;2.70;;
23444;SDS011;11895;48.738;9.320;2023-04-03T05:36:16;3.60;;;2.33;;
23444;SDS011;11895;48.738;9.320;2023-04-03T05:38:49;5.85;;;2.60;;
23444;SDS011;11895;48.738;9.320;2023-04-03T05:41:18;5.25;;;2.58;;
23444;SDS011;11895;48.738;9.320;2023-04-03T05:43:48;5.03;;;2.83;;
23444;SDS011;11895;48.738;9.320;2023-04-03T05:46:18;4.88;;;2.42;;
23444;SDS011;11895;48.738;9.320;2023-04-03T05:48:51;7.32;;;3.28;;
23444;SDS011;11895;48.738;9.320;2023-04-03T05:51:22;4.20;;;2.60;;
23444;SDS011;11895;48.738;9.320;2023-04-03T05:56:57;2.70;;;2.05;;
23444;SDS011;11895;48.738;9.320;2023-04-03T05:59:26;8.35;;;3.55;;
23444;SDS011;11895;48.738;9.320;2023-04-03T06:01:56;5.63;;;2.88;;
23444;SDS011;11895;48.738;9.320;2023-04-03T06:04:24;4.85;;;2.97;;
23444;SDS011;11895;48.738;9.320;2023-04-03T06:06:53;4.88;;;2.78;;
23444;SDS011;11895;48.738;9.320;2023-04-03T06:09:26;4.05;;;2.40;;
23444;SDS011;11895;48.738;9.320;2023-04-03T06:11:55;7.35;;;4.05;;
23444;SDS011;11895;48.738;9.320;2023-04-03T06:14:26;6.80;;;3.88;;
23444;SDS011;11895;48.738;9.320;2023-04-03T06:16:54;6.68;;;2.40;;
23444;SDS011;11895;48.738;9.320;2023-04-03T06:19:22;5.13;;;2.50;;
23444;SDS011;11895;48.738;9.320;2023-04-03T06:21:54;5.60;;;2.60;;
23444;SDS011;11895;48.738;9.320;2023-04-03T06:26:51;2.85;;;1.80;;
23444;SDS011;11895;48.738;9.320;2023-04-03T06:29:19;4.90;;;2.38;;
23444;SDS011;11895;48.738;9.320;2023-04-03T06:31:48;3.90;;;2.35;;
23444;SDS011;11895;48.738;9.320;2023-04-03T06:34:17;2.75;;;2.30;;
23444;SDS011;11895;48.738;9.320;2023-04-03T06:36:44;3.55;;;2.47;;
23444;SDS011;11895;48.738;9.320;2023-04-03T06:39:15;7.55;;;3.95;;
23444;SDS011;11895;48.738;9.320;2023-04-03T06:41:47;3.72;;;2.85;;
23444;SDS011;11895;48.738;9.320;2023-04-03T06:44:24;6.72;;;3.10;;
23444;SDS011;11895;48.738;9.320;2023-04-03T06:46:52;3.50;;;2.08;;
23444;SDS011;11895;48.738;9.320;2023-04-03T06:49:21;6.88;;;2.50;;
23444;SDS011;11895;48.738;9.320;2023-04-03T06:51:48;5.57;;;2.17;;
23444;SDS011;11895;48.738;9.320;2023-04-03T06:54:18;7.38;;;3.20;;
23444;SDS011;11895;48.738;9.320;2023-04-03T06:56:45;3.10;;;2.35;;
23444;SDS011;11895;48.738;9.320;2023-04-03T06:59:13;6.40;;;2.90;;
23444;SDS011;11895;48.738;9.320;2023-04-03T07:01:41;4.17;;;2.40;;
23444;SDS011;11895;48.738;9.320;2023-04-03T07:04:08;6.07;;;2.20;;
23444;SDS011;11895;48.738;9.320;2023-04-03T07:06:36;4.53;;;2.28;;
23444;SDS011;11895;48.738;9.320;2023-04-03T07:09:05;4.63;;;2.47;;
23444;SDS011;11895;48.738;9.320;2023-04-03T07:11:33;5.35;;;2.38;;
23444;SDS011;11895;48.738;9.320;2023-04-03T07:14:02;6.65;;;2.60;;
23444;SDS011;11895;48.738;9.320;2023-04-03T07:16:29;4.00;;;2.03;;
23444;SDS011;11895;48.738;9.320;2023-04-03T07:18:57;6.25;;;3.10;;
23444;SDS011;11895;48.738;9.320;2023-04-03T07:21:25;6.67;;;2.57;;
23444;SDS011;11895;48.738;9.320;2023-04-03T07:23:52;12.60;;;3.28;;
23444;SDS011;11895;48.738;9.320;2023-04-03T07:26:21;8.15;;;2.47;;
23444;SDS011;11895;48.738;9.320;2023-04-03T07:28:49;4.28;;;2.53;;
23444;SDS011;11895;48.738;9.320;2023-04-03T07:31:16;5.43;;;2.33;;
23444;SDS011;11895;48.738;9.320;2023-04-03T07:33:45;5.45;;;2.58;;
23444;SDS011;11895;48.738;9.320;2023-04-03T07:36:14;4.53;;;2.58;;
23444;SDS011;11895;48.738;9.320;2023-04-03T07:38:45;7.13;;;2.40;;
23444;SDS011;11895;48.738;9.320;2023-04-03T07:41:14;4.32;;;2.20;;
23444;SDS011;11895;48.738;9.320;2023-04-03T07:43:45;4.07;;;2.45;;
23444;SDS011;11895;48.738;9.320;2023-04-03T07:46:13;4.05;;;2.53;;
23444;SDS011;11895;48.738;9.320;2023-04-03T07:48:41;3.95;;;2.13;;
23444;SDS011;11895;48.738;9.320;2023-04-03T07:51:09;4.10;;;2.23;;
23444;SDS011;11895;48.738;9.320;2023-04-03T07:53:36;4.68;;;2.50;;
23444;SDS011;11895;48.738;9.320;2023-04-03T07:56:04;6.38;;;2.50;;
23444;SDS011;11895;48.738;9.320;2023-04-03T07:58:32;3.92;;;2.60;;
23444;SDS011;11895;48.738;9.320;2023-04-03T08:00:59;5.13;;;2.72;;
23444;SDS011;11895;48.738;9.320;2023-04-03T08:03:27;5.88;;;2.60;;
23444;SDS011;11895;48.738;9.320;2023-04-03T08:06:00;4.18;;;1.95;;
23444;SDS011;11895;48.738;9.320;2023-04-03T08:08:33;6.13;;;3.35;;
23444;SDS011;11895;48.738;9.320;2023-04-03T08:11:01;3.88;;;2.30;;
23444;SDS011;11895;48.738;9.320;2023-04-03T08:13:32;4.00;;;2.17;;
23444;SDS011;11895;48.738;9.320;2023-04-03T08:16:09;6.10;;;2.28;;
23444;SDS011;11895;48.738;9.320;2023-04-03T08:18:39;5.03;;;2.40;;
23444;SDS011;11895;48.738;9.320;2023-04-03T08:21:10;6.93;;;2.60;;
23444;SDS011;11895;48.738;9.320;2023-04-03T08:23:41;5.13;;;2.30;;
23444;SDS011;11895;48.738;9.320;2023-04-03T08:26:13;5.35;;;2.80;;
23444;SDS011;11895;48.738;9.320;2023-04-03T08:28:43;6.60;;;2.58;;
23444;SDS011;11895;48.738;9.320;2023-04-03T08:31:12;5.20;;;2.70;;
23444;SDS011;11895;48.738;9.320;2023-04-03T08:33:45;7.70;;;2.45;;
23444;SDS011;11895;48.738;9.320;2023-04-03T08:36:18;6.03;;;3.03;;
23444;SDS011;11895;48.738;9.320;2023-04-03T08:38:49;5.40;;;2.45;;
23444;SDS011;11895;48.738;9.320;2023-04-03T08:41:29;6.22;;;2.47;;
23444;SDS011;11895;48.738;9.320;2023-04-03T08:47:43;4.07;;;2.77;;
23444;SDS011;11895;48.738;9.320;2023-04-03T08:50:24;5.40;;;2.80;;
23444;SDS011;11895;48.738;9.320;2023-04-03T08:53:02;2.75;;;2.10;;
23444;SDS011;11895;48.738;9.320;2023-04-03T08:55:34;6.45;;;2.53;;
23444;SDS011;11895;48.738;9.320;2023-04-03T08:58:12;5.18;;;1.77;;
23444;SDS011;11895;48.738;9.320;2023-04-03T09:01:02;5.40;;;2.40;;
23444;SDS011;11895;48.738;9.320;2023-04-03T09:14:45;6.25;;;2.47;;
23444;SDS011;11895;48.738;9.320;2023-04-03T09:20:16;5.05;;;2.30;;
23444;SDS011;11895;48.738;9.320;2023-04-03T09:23:03;7.15;;;2.38;;
23444;SDS011;11895;48.738;9.320;2023-04-03T09:25:48;5.00;;;2.53;;
23444;SDS011;11895;48.738;9.320;2023-04-03T09:28:17;5.50;;;2.35;;
23444;SDS011;11895;48.738;9.320;2023-04-03T09:30:45;4.40;;;2.08;;
23444;SDS011;11895;48.738;9.320;2023-04-03T09:33:13;3.88;;;2.17;;
23444;SDS011;11895;48.738;9.320;2023-04-03T09:35:44;4.35;;;2.33;;
23444;SDS011;11895;48.738;9.320;2023-04-03T09:38:16;5.28;;;2.10;;
23444;SDS011;11895;48.738;9.320;2023-04-03T09:40:49;6.32;;;2.10;;
23444;SDS011;11895;48.738;9.320;2023-04-03T09:43:32;6.32;;;2.53;;
23444;SDS011;11895;48.738;9.320;2023-04-03T09:48:58;5.35;;;2.50;;
23444;SDS011;11895;48.738;9.320;2023-04-03T09:51:32;4.18;;;1.80;;
23444;SDS011;11895;48.738;9.320;2023-04-03T09:53:59;4.93;;;1.80;;
23444;SDS011;11895;48.738;9.320;2023-04-03T09:56:53;4.95;;;2.22;;
23444;SDS011;11895;48.738;9.320;2023-04-03T09:59:22;3.08;;;1.80;;
23444;SDS011;11895;48.738;9.320;2023-04-03T10:01:58;7.60;;;2.28;;
23444;SDS011;11895;48.738;9.320;2023-04-03T10:04:37;5.05;;;1.90;;
23444;SDS011;11895;48.738;9.320;2023-04-03T10:07:25;3.47;;;1.65;;
23444;SDS011;11895;48.738;9.320;2023-04-03T10:09:58;3.90;;;2.00;;
23444;SDS011;11895;48.738;9.320;2023-04-03T10:12:44;3.75;;;1.90;;
23444;SDS011;11895;48.738;9.320;2023-04-03T10:15:13;2.97;;;1.75;;
23444;SDS011;11895;48.738;9.320;2023-04-03T10:20:42;4.60;;;2.08;;
23444;SDS011;11895;48.738;9.320;2023-04-03T10:31:28;3.10;;;1.65;;
23444;SDS011;11895;48.738;9.320;2023-04-03T10:34:20;2.80;;;1.50;;
23444;SDS011;11895;48.738;9.320;2023-04-03T10:39:54;4.40;;;1.77;;
23444;SDS011;11895;48.738;9.320;2023-04-03T10:43:02;4.93;;;2.42;;
23444;SDS011;11895;48.738;9.320;2023-04-03T10:46:00;3.58;;;2.00;;
23444;SDS011;11895;48.738;9.320;2023-04-03T10:51:47;3.87;;;1.60;;
23444;SDS011;11895;48.738;9.320;2023-04-03T10:54:25;4.97;;;2.00;;
23444;SDS011;11895;48.738;9.320;2023-04-03T10:57:12;2.95;;;2.00;;
23444;SDS011;11895;48.738;9.320;2023-04-03T10:59:45;2.97;;;1.60;;
23444;SDS011;11895;48.738;9.320;2023-04-03T11:08:04;3.95;;;1.52;;
23444;SDS011;11895;48.738;9.320;2023-04-03T11:10:48;6.78;;;1.98;;
23444;SDS011;11895;48.738;9.320;2023-04-03T11:13:22;7.28;;;1.88;;
23444;SDS011;11895;48.738;9.320;2023-04-03T11:16:14;5.00;;;1.77;;
23444;SDS011;11895;48.738;9.320;2023-04-03T11:18:59;5.78;;;2.10;;
23444;SDS011;11895;48.738;9.320;2023-04-03T11:21:42;4.25;;;2.03;;
23444;SDS011;11895;48.738;9.320;2023-04-03T11:24:36;3.70;;;1.70;;
23444;SDS011;11895;48.738;9.320;2023-04-03T11:27:14;4.88;;;1.75;;
23444;SDS011;11895;48.738;9.320;2023-04-03T11:29:53;4.03;;;1.77;;
23444;SDS011;11895;48.738;9.320;2023-04-03T11:35:23;3.80;;;1.50;;
23444;SDS011;11895;48.738;9.320;2023-04-03T11:37:53;2.50;;;1.63;;
23444;SDS011;11895;48.738;9.320;2023-04-03T11:40:24;5.07;;;1.92;;
23444;SDS011;11895;48.738;9.320;2023-04-03T11:50:55;2.67;;;1.60;;
23444;SDS011;11895;48.738;9.320;2023-04-03T11:53:39;4.97;;;2.05;;
23444;SDS011;11895;48.738;9.320;2023-04-03T12:01:57;4.88;;;1.85;;
23444;SDS011;11895;48.738;9.320;2023-04-03T12:04:26;3.50;;;1.67;;
23444;SDS011;11895;48.738;9.320;2023-04-03T12:07:18;3.63;;;1.58;;
23444;SDS011;11895;48.738;9.320;2023-04-03T12:12:47;2.63;;;1.50;;
23444;SDS011;11895;48.738;9.320;2023-04-03T12:17:52;4.00;;;1.58;;
23444;SDS011;11895;48.738;9.320;2023-04-03T12:23:24;3.15;;;1.60;;
23444;SDS011;11895;48.738;9.320;2023-04-03T12:29:20;3.78;;;1.58;;
23444;SDS011;11895;48.738;9.320;2023-04-03T12:46:21;4.00;;;1.75;;
23444;SDS011;11895;48.738;9.320;2023-04-03T12:48:51;3.75;;;1.48;;
23444;SDS011;11895;48.738;9.320;2023-04-03T12:54:17;2.88;;;1.20;;
23444;SDS011;11895;48.738;9.320;2023-04-03T12:56:50;6.22;;;1.90;;
23444;SDS011;11895;48.738;9.320;2023-04-03T12:59:22;4.30;;;1.83;;
23444;SDS011;11895;48.738;9.320;2023-04-03T13:01:55;3.50;;;1.70;;
23444;SDS011;11895;48.738;9.320;2023-04-03T13:04:32;5.22;;;1.85;;
23444;SDS011;11895;48.738;9.320;2023-04-03T13:07:02;11.88;;;2.67;;
23444;SDS011;11895;48.738;9.320;2023-04-03T13:09:43;4.63;;;1.73;;
23444;SDS011;11895;48.738;9.320;2023-04-03T13:12:27;5.07;;;1.95;;
23444;SDS011;11895;48.738;9.320;2023-04-03T13:14:59;5.32;;;1.75;;
23444;SDS011;11895;48.738;9.320;2023-04-03T13:17:39;4.57;;;1.80;;
23444;SDS011;11895;48.738;9.320;2023-04-03T13:20:12;6.20;;;1.88;;
23444;SDS011;11895;48.738;9.320;2023-04-03T13:23:10;3.47;;;1.65;;
23444;SDS011;11895;48.738;9.320;2023-04-03T13:25:44;6.53;;;2.65;;
23444;SDS011;11895;48.738;9.320;2023-04-03T13:28:18;4.22;;;2.33;;
23444;SDS011;11895;48.738;9.320;2023-04-03T13:30:58;4.85;;;1.67;;
23444;SDS011;11895;48.738;9.320;2023-04-03T13:33:36;4.18;;;2.00;;
23444;SDS011;11895;48.738;9.320;2023-04-03T13:36:18;5.35;;;2.03;;
23444;SDS011;11895;48.738;9.320;2023-04-03T13:41:40;6.63;;;1.38;;
23444;SDS011;11895;48.738;9.320;2023-04-03T13:46:48;5.03;;;1.75;;
23444;SDS011;11895;48.738;9.320;2023-04-03T13:51:54;3.08;;;1.52;;
23444;SDS011;11895;48.738;9.320;2023-04-03T13:57:13;5.57;;;1.95;;
23444;SDS011;11895;48.738;9.320;2023-04-03T13:59:46;4.82;;;2.75;;
23444;SDS011;11895;48.738;9.320;2023-04-03T14:04:51;5.97;;;2.17;;
23444;SDS011;11895;48.738;9.320;2023-04-03T14:07:48;5.63;;;1.77;;
23444;SDS011;11895;48.738;9.320;2023-04-03T14:10:17;6.73;;;2.37;;
23444;SDS011;11895;48.738;9.320;2023-04-03T14:12:45;5.55;;;2.10;;
23444;SDS011;11895;48.738;9.320;2023-04-03T14:15:18;3.92;;;1.95;;
23444;SDS011;11895;48.738;9.320;2023-04-03T14:17:54;6.00;;;1.90;;
23444;SDS011;11895;48.738;9.320;2023-04-03T14:20:24;3.15;;;1.67;;
23444;SDS011;11895;48.738;9.320;2023-04-03T14:22:53;4.65;;;2.17;;
23444;SDS011;11895;48.738;9.320;2023-04-03T14:25:21;3.57;;;2.00;;
23444;SDS011;11895;48.738;9.320;2023-04-03T14:27:51;4.53;;;1.77;;
23444;SDS011;11895;48.738;9.320;2023-04-03T14:30:25;4.93;;;1.50;;
23444;SDS011;11895;48.738;9.320;2023-04-03T14:32:57;2.67;;;1.55;;
23444;SDS011;11895;48.738;9.320;2023-04-03T14:35:26;3.67;;;1.85;;
23444;SDS011;11895;48.738;9.320;2023-04-03T14:37:54;4.28;;;1.67;;
23444;SDS011;11895;48.738;9.320;2023-04-03T14:40:23;6.60;;;2.20;;
23444;SDS011;11895;48.738;9.320;2023-04-03T14:42:54;5.97;;;2.10;;
23444;SDS011;11895;48.738;9.320;2023-04-03T14:45:23;3.65;;;1.80;;
23444;SDS011;11895;48.738;9.320;2023-04-03T14:47:52;4.88;;;2.05;;
23444;SDS011;11895;48.738;9.320;2023-04-03T14:50:22;6.97;;;1.98;;
23444;SDS011;11895;48.738;9.320;2023-04-03T14:52:54;6.13;;;2.58;;
23444;SDS011;11895;48.738;9.320;2023-04-03T14:55:25;5.45;;;2.33;;
23444;SDS011;11895;48.738;9.320;2023-04-03T14:57:54;2.85;;;1.73;;
23444;SDS011;11895;48.738;9.320;2023-04-03T15:00:22;9.70;;;2.35;;
23444;SDS011;11895;48.738;9.320;2023-04-03T15:02:49;5.38;;;2.15;;
23444;SDS011;11895;48.738;9.320;2023-04-03T15:05:18;8.60;;;2.40;;
23444;SDS011;11895;48.738;9.320;2023-04-03T15:07:47;4.73;;;1.70;;
23444;SDS011;11895;48.738;9.320;2023-04-03T15:10:27;4.82;;;1.80;;
23444;SDS011;11895;48.738;9.320;2023-04-03T15:12:57;4.28;;;1.90;;
23444;SDS011;11895;48.738;9.320;2023-04-03T15:15:27;8.63;;;2.22;;
23444;SDS011;11895;48.738;9.320;2023-04-03T15:17:56;4.05;;;1.88;;
23444;SDS011;11895;48.738;9.320;2023-04-03T15:20:26;4.32;;;2.00;;
23444;SDS011;11895;48.738;9.320;2023-04-03T15:22:57;2.65;;;1.45;;
23444;SDS011;11895;48.738;9.320;2023-04-03T15:25:31;3.97;;;1.80;;
23444;SDS011;11895;48.738;9.320;2023-04-03T15:27:59;3.78;;;1.50;;
23444;SDS011;11895;48.738;9.320;2023-04-03T15:30:27;4.13;;;1.67;;
23444;SDS011;11895;48.738;9.320;2023-04-03T15:32:55;4.75;;;1.85;;
23444;SDS011;11895;48.738;9.320;2023-04-03T15:35:22;5.07;;;1.98;;
23444;SDS011;11895;48.738;9.320;2023-04-03T15:37:50;3.90;;;2.20;;
23444;SDS011;11895;48.738;9.320;2023-04-03T15:40:18;3.30;;;1.90;;
23444;SDS011;11895;48.738;9.320;2023-04-03T15:42:46;3.65;;;1.80;;
23444;SDS011;11895;48.738;9.320;2023-04-03T15:45:13;4.45;;;2.00;;
23444;SDS011;11895;48.738;9.320;2023-04-03T15:47:41;5.47;;;1.58;;
23444;SDS011;11895;48.738;9.320;2023-04-03T15:50:09;6.60;;;1.85;;
23444;SDS011;11895;48.738;9.320;2023-04-03T15:52:37;2.57;;;1.33;;
23444;SDS011;11895;48.738;9.320;2023-04-03T15:55:05;3.88;;;1.50;;
23444;SDS011;11895;48.738;9.320;2023-04-03T15:57:33;3.42;;;1.52;;
23444;SDS011;11895;48.738;9.320;2023-04-03T16:00:06;2.78;;;1.58;;
23444;SDS011;11895;48.738;9.320;2023-04-03T16:02:34;3.70;;;1.80;;
23444;SDS011;11895;48.738;9.320;2023-04-03T16:05:09;3.78;;;1.50;;
23444;SDS011;11895;48.738;9.320;2023-04-03T16:07:38;4.90;;;1.92;;
23444;SDS011;11895;48.738;9.320;2023-04-03T16:10:06;5.85;;;1.98;;
23444;SDS011;11895;48.738;9.320;2023-04-03T16:12:36;6.55;;;2.03;;
23444;SDS011;11895;48.738;9.320;2023-04-03T16:15:04;4.80;;;2.05;;
23444;SDS011;11895;48.738;9.320;2023-04-03T16:22:33;3.47;;;1.73;;
23444;SDS011;11895;48.738;9.320;2023-04-03T16:25:01;4.00;;;1.70;;
23444;SDS011;11895;48.738;9.320;2023-04-03T16:27:31;6.53;;;1.60;;
23444;SDS011;11895;48.738;9.320;2023-04-03T16:29:59;2.67;;;1.30;;
23444;SDS011;11895;48.738;9.320;2023-04-03T16:32:27;5.68;;;2.63;;
23444;SDS011;11895;48.738;9.320;2023-04-03T16:34:58;4.40;;;1.60;;
23444;SDS011;11895;48.738;9.320;2023-04-03T16:39:58;2.72;;;1.55;;
23444;SDS011;11895;48.738;9.320;2023-04-03T16:42:25;11.10;;;2.50;;
23444;SDS011;11895;48.738;9.320;2023-04-03T16:44:53;3.38;;;1.90;;
23444;SDS011;11895;48.738;9.320;2023-04-03T16:47:21;5.65;;;1.92;;
23444;SDS011;11895;48.738;9.320;2023-04-03T16:49:49;3.78;;;1.73;;
23444;SDS011;11895;48.738;9.320;2023-04-03T16:52:16;3.97;;;1.58;;
23444;SDS011;11895;48.738;9.320;2023-04-03T16:54:48;2.60;;;1.50;;
23444;SDS011;11895;48.738;9.320;2023-04-03T16:57:22;5.65;;;1.80;;
23444;SDS011;11895;48.738;9.320;2023-04-03T16:59:51;2.72;;;1.60;;
23444;SDS011;11895;48.738;9.320;2023-04-03T17:02:20;3.05;;;1.85;;
23444;SDS011;11895;48.738;9.320;2023-04-03T17:04:51;6.40;;;2.13;;
23444;SDS011;11895;48.738;9.320;2023-04-03T17:07:20;3.20;;;1.70;;
23444;SDS011;11895;48.738;9.320;2023-04-03T17:09:51;3.42;;;1.80;;
23444;SDS011;11895;48.738;9.320;2023-04-03T17:12:20;3.72;;;1.90;;
23444;SDS011;11895;48.738;9.320;2023-04-03T17:14:48;6.73;;;2.47;;
23444;SDS011;11895;48.738;9.320;2023-04-03T17:17:18;5.13;;;2.35;;
23444;SDS011;11895;48.738;9.320;2023-04-03T17:19:50;4.10;;;2.00;;
23444;SDS011;11895;48.738;9.320;2023-04-03T17:22:20;5.20;;;2.55;;